createdAt,value
2022-08-11T00:02:30.006Z,99.90
2022-08-11T00:05:02.418Z,99.90
2022-08-11T00:07:31.498Z,99.90
2022-08-11T00:10:00.473Z,99.90
2022-08-11T00:12:29.562Z,99.90
2022-08-11T00:15:00.500Z,99.90
2022-08-11T00:17:32.990Z,99.90
2022-08-11T00:20:14.171Z,99.90
2022-08-11T00:22:47.482Z,99.90
2022-08-11T00:25:17.878Z,99.90
2022-08-11T00:27:47.842Z,99.90
2022-08-11T00:30:17.103Z,99.90
2022-08-11T00:32:58.823Z,99.90
2022-08-11T00:35:54.135Z,99.90
2022-08-11T00:38:25.712Z,99.90
2022-08-11T00:41:00.621Z,99.90
2022-08-11T00:43:42.985Z,99.90
2022-08-11T00:46:17.225Z,99.90
2022-08-11T00:48:59.563Z,99.90
2022-08-11T00:52:03.791Z,99.90
2022-08-11T00:55:02.779Z,99.90
2022-08-11T00:58:02.675Z,99.90
2022-08-11T01:00:44.541Z,99.90
2022-08-11T01:03:28.322Z,99.90
2022-08-11T01:06:29.057Z,99.90
2022-08-11T01:09:22.977Z,99.90
2022-08-11T01:12:24.775Z,99.90
2022-08-11T01:15:35.006Z,99.90
2022-08-11T01:18:55.553Z,99.90
2022-08-11T01:22:08.236Z,99.90
2022-08-11T01:25:15.138Z,99.90
2022-08-11T01:28:34.592Z,99.90
2022-08-11T01:31:47.346Z,99.90
2022-08-11T01:34:57.465Z,99.90
2022-08-11T01:38:00.327Z,99.90
2022-08-11T01:41:16.477Z,99.90
2022-08-11T01:44:25.749Z,99.90
2022-08-11T01:46:58.911Z,99.90
2022-08-11T01:50:08.488Z,99.90
2022-08-11T01:52:30.385Z,99.90
2022-08-11T01:55:15.892Z,99.90
2022-08-11T01:57:48.546Z,99.90
2022-08-11T02:00:21.315Z,99.90
2022-08-11T02:02:58.299Z,99.90
2022-08-11T02:05:45.769Z,99.90
2022-08-11T02:08:33.622Z,99.90
2022-08-11T02:11:35.590Z,99.90
2022-08-11T02:14:22.587Z,99.90
2022-08-11T02:17:03.534Z,99.90
2022-08-11T02:20:01.711Z,99.90
2022-08-11T02:22:58.237Z,99.90
2022-08-11T02:25:34.190Z,99.90
2022-08-11T02:28:08.828Z,99.90
2022-08-11T02:30:43.686Z,99.90
2022-08-11T02:33:23.400Z,99.90
2022-08-11T02:36:05.007Z,99.90
2022-08-11T02:38:43.334Z,99.90
2022-08-11T02:41:35.096Z,99.90
2022-08-11T02:44:22.313Z,99.90
2022-08-11T02:47:02.355Z,99.90
2022-08-11T02:50:02.727Z,99.90
2022-08-11T02:52:45.438Z,99.90
2022-08-11T02:55:48.851Z,99.90
2022-08-11T02:58:16.227Z,99.90
2022-08-11T03:00:55.083Z,99.90
2022-08-11T03:03:31.061Z,99.90
2022-08-11T03:06:09.252Z,99.90
2022-08-11T03:08:54.569Z,99.90
2022-08-11T03:12:04.533Z,99.90
2022-08-11T03:14:57.211Z,99.90
2022-08-11T03:17:33.022Z,99.90
2022-08-11T03:20:16.157Z,99.90
2022-08-11T03:22:55.712Z,99.90
2022-08-11T03:25:32.578Z,99.90
2022-08-11T03:28:11.316Z,99.90
2022-08-11T03:30:47.905Z,99.90
2022-08-11T03:33:43.486Z,99.90
2022-08-11T03:36:25.421Z,99.90
2022-08-11T03:39:09.146Z,99.90
2022-08-11T03:42:02.778Z,99.90
2022-08-11T03:45:08.664Z,99.90
2022-08-11T03:47:52.386Z,99.90
2022-08-11T03:50:48.954Z,99.90
2022-08-11T03:53:48.980Z,99.90
2022-08-11T03:57:03.370Z,99.90
2022-08-11T03:59:53.254Z,99.90
2022-08-11T04:02:42.703Z,99.90
2022-08-11T04:05:40.454Z,99.90
2022-08-11T04:08:49.222Z,99.90
2022-08-11T04:11:47.475Z,99.90
2022-08-11T04:15:09.373Z,99.90
2022-08-11T04:17:54.018Z,99.90
2022-08-11T04:20:51.887Z,99.90
2022-08-11T04:24:35.833Z,99.90
2022-08-11T04:27:21.155Z,99.90
2022-08-11T04:30:05.393Z,99.90
2022-08-11T04:32:54.140Z,99.90
2022-08-11T04:35:33.718Z,99.90
2022-08-11T04:38:30.619Z,99.90
2022-08-11T04:41:22.090Z,99.90
2022-08-11T04:44:18.715Z,99.90
2022-08-11T04:48:01.731Z,99.90
2022-08-11T04:51:00.703Z,99.90
2022-08-11T04:54:11.124Z,99.90
2022-08-11T04:57:02.302Z,99.90
2022-08-11T05:00:24.033Z,99.90
2022-08-11T05:03:16.324Z,99.90
2022-08-11T05:06:10.089Z,99.90
2022-08-11T05:09:02.905Z,99.90
2022-08-11T05:12:01.659Z,99.90
2022-08-11T05:14:57.507Z,99.90
2022-08-11T05:17:52.450Z,99.90
2022-08-11T05:20:39.496Z,99.90
2022-08-11T05:23:27.421Z,99.90
2022-08-11T05:26:46.658Z,99.90
2022-08-11T05:29:43.158Z,99.90
2022-08-11T05:32:34.360Z,99.90
2022-08-11T05:35:07.545Z,99.90
2022-08-11T05:37:42.314Z,99.90
2022-08-11T05:40:30.638Z,99.90
2022-08-11T05:43:18.293Z,99.90
2022-08-11T05:46:14.653Z,99.90
2022-08-11T05:49:02.378Z,99.90
2022-08-11T05:51:55.463Z,99.90
2022-08-11T05:54:46.152Z,99.90
2022-08-11T05:57:48.979Z,99.90
2022-08-11T06:00:12.054Z,99.90
2022-08-11T06:02:44.462Z,99.90
2022-08-11T06:05:15.194Z,99.90
2022-08-11T06:07:48.674Z,99.90
2022-08-11T06:10:28.531Z,99.90
2022-08-11T06:12:58.278Z,99.90
2022-08-11T06:15:27.468Z,99.90
2022-08-11T06:17:56.951Z,99.90
2022-08-11T06:20:27.087Z,99.90
2022-08-11T06:23:02.163Z,99.90
2022-08-11T06:25:35.857Z,99.90
2022-08-11T06:28:06.782Z,99.90
2022-08-11T06:30:39.901Z,98.70
2022-08-11T06:33:11.135Z,99.60
2022-08-11T06:35:52.978Z,99.90
2022-08-11T06:38:42.305Z,99.60
2022-08-11T06:41:34.298Z,98.10
2022-08-11T06:44:17.152Z,97.80
2022-08-11T06:46:49.027Z,97.30
2022-08-11T06:49:37.019Z,97.10
2022-08-11T06:52:12.937Z,97.70
2022-08-11T06:55:06.648Z,97.90
2022-08-11T06:57:55.394Z,97.30
2022-08-11T07:00:30.452Z,96.50
2022-08-11T07:03:08.259Z,96.70
2022-08-11T07:05:45.813Z,96.40
2022-08-11T07:08:55.105Z,94.20
2022-08-11T07:12:15.749Z,92.80
2022-08-11T07:15:09.032Z,91.40
2022-08-11T07:17:43.776Z,92.40
2022-08-11T07:20:31.623Z,90.80
2022-08-11T07:23:20.215Z,91.30
2022-08-11T07:26:13.003Z,90.90
2022-08-11T07:28:59.209Z,90.90
2022-08-11T07:31:37.078Z,87.60
2022-08-11T07:34:20.872Z,88.20
2022-08-11T07:36:53.427Z,86.70
2022-08-11T07:39:24.145Z,88.20
2022-08-11T07:41:57.053Z,84.90
2022-08-11T07:44:34.375Z,80.20
2022-08-11T07:47:21.233Z,78.70
2022-08-11T07:50:09.168Z,80.50
2022-08-11T07:52:40.566Z,79.70
2022-08-11T07:55:14.410Z,78.60
2022-08-11T07:58:17.008Z,81.40
2022-08-11T08:01:10.315Z,80.90
2022-08-11T08:04:07.320Z,77.90
2022-08-11T08:06:54.282Z,76.50
2022-08-11T08:09:41.605Z,76.30
2022-08-11T08:12:27.983Z,77.10
2022-08-11T08:15:16.130Z,73.00
2022-08-11T08:18:08.948Z,71.10
2022-08-11T08:20:46.263Z,70.30
2022-08-11T08:23:15.007Z,69.30
2022-08-11T08:25:46.054Z,67.40
2022-08-11T08:28:18.641Z,69.30
2022-08-11T08:30:51.117Z,64.20
2022-08-11T08:33:23.018Z,68.20
2022-08-11T08:36:11.548Z,71.00
2022-08-11T08:38:42.279Z,67.90
2022-08-11T08:41:16.294Z,68.00
2022-08-11T08:43:49.596Z,63.30
2022-08-11T08:46:23.213Z,60.00
2022-08-11T08:48:53.416Z,60.80
2022-08-11T08:52:01.195Z,60.30
2022-08-11T08:54:29.158Z,62.90
2022-08-11T08:56:58.387Z,59.40
2022-08-11T08:59:47.868Z,56.70
2022-08-11T09:02:33.687Z,56.20
2022-08-11T09:05:04.342Z,57.20
2022-08-11T09:07:38.855Z,55.40
2022-08-11T09:10:10.301Z,53.30
2022-08-11T09:12:41.667Z,55.70
2022-08-11T09:15:11.982Z,54.90
2022-08-11T09:17:44.679Z,52.70
2022-08-11T09:20:19.118Z,53.10
2022-08-11T09:26:14.890Z,55.20
2022-08-11T09:28:44.968Z,50.60
2022-08-11T09:31:14.092Z,50.50
2022-08-11T09:33:45.634Z,47.30
2022-08-11T09:36:32.587Z,49.60
2022-08-11T09:39:31.054Z,46.90
2022-08-11T09:42:03.432Z,44.20
2022-08-11T09:44:48.805Z,46.10
2022-08-11T09:47:24.265Z,44.50
2022-08-11T09:49:59.994Z,44.70
2022-08-11T09:52:31.664Z,44.90
2022-08-11T09:55:00.803Z,42.00
2022-08-11T09:57:46.586Z,44.80
2022-08-11T10:00:16.200Z,42.40
2022-08-11T10:02:47.184Z,40.20
2022-08-11T10:05:38.032Z,39.70
2022-08-11T10:08:08.425Z,42.10
2022-08-11T10:10:39.063Z,42.80
2022-08-11T10:13:43.963Z,39.90
2022-08-11T10:16:15.626Z,40.80
2022-08-11T10:18:52.772Z,40.00
2022-08-11T10:21:30.324Z,39.40
2022-08-11T10:24:18.821Z,40.20
2022-08-11T10:26:55.449Z,39.40
2022-08-11T10:29:44.403Z,35.70
2022-08-11T10:32:46.346Z,35.70
2022-08-11T10:35:27.456Z,35.90
2022-08-11T10:38:06.656Z,37.20
2022-08-11T10:40:39.959Z,36.90
2022-08-11T10:43:13.708Z,36.60
2022-08-11T10:46:03.052Z,34.70
2022-08-11T10:48:36.268Z,34.00
2022-08-11T10:51:15.592Z,34.90
2022-08-11T10:54:23.763Z,36.70
2022-08-11T10:57:09.981Z,34.20
2022-08-11T10:59:38.338Z,33.20
2022-08-11T11:02:07.024Z,32.90
2022-08-11T11:04:48.881Z,33.50
2022-08-11T11:07:24.189Z,33.00
2022-08-11T11:09:58.509Z,35.10
2022-08-11T11:13:00.751Z,34.70
2022-08-11T11:16:00.680Z,34.90
2022-08-11T11:18:33.547Z,34.30
2022-08-11T11:21:08.274Z,33.80
2022-08-11T11:23:42.744Z,33.10
2022-08-11T11:26:50.491Z,32.50
2022-08-11T11:29:54.629Z,34.60
2022-08-11T11:32:31.537Z,32.80
2022-08-11T11:35:23.905Z,32.90
2022-08-11T11:37:56.121Z,31.30
2022-08-11T11:40:33.778Z,31.00
2022-08-11T11:43:03.669Z,31.80
2022-08-11T11:45:32.410Z,32.20
2022-08-11T11:48:01.610Z,32.60
2022-08-11T11:50:32.872Z,32.90
2022-08-11T11:53:02.960Z,33.80
2022-08-11T11:55:32.166Z,32.30
2022-08-11T11:58:22.222Z,31.00
2022-08-11T12:01:09.690Z,31.20
2022-08-11T12:03:39.243Z,31.50
2022-08-11T12:06:09.405Z,30.50
2022-08-11T12:08:38.742Z,30.00
2022-08-11T12:11:27.360Z,33.50
2022-08-11T12:14:00.030Z,34.10
2022-08-11T12:16:33.834Z,32.70
2022-08-11T12:19:06.437Z,34.40
2022-08-11T12:21:37.336Z,33.10
2022-08-11T12:24:29.462Z,32.00
2022-08-11T12:27:18.226Z,33.90
2022-08-11T12:29:55.381Z,35.30
2022-08-11T12:32:26.106Z,35.30
2022-08-11T12:34:56.945Z,36.30
2022-08-11T12:37:30.611Z,37.90
2022-08-11T12:40:43.335Z,36.10
2022-08-11T12:43:37.152Z,36.50
2022-08-11T12:46:10.049Z,35.90
2022-08-11T12:49:03.115Z,35.20
2022-08-11T12:52:00.795Z,38.50
2022-08-11T12:54:57.769Z,38.70
2022-08-11T12:57:48.914Z,37.60
2022-08-11T13:00:36.888Z,33.90
2022-08-11T13:03:26.231Z,32.60
2022-08-11T13:05:57.542Z,33.50
2022-08-11T13:08:27.940Z,32.40
2022-08-11T13:11:16.423Z,34.40
2022-08-11T13:13:52.627Z,32.60
2022-08-11T13:16:25.251Z,30.10
2022-08-11T13:18:55.258Z,31.70
2022-08-11T13:21:24.499Z,32.00
2022-08-11T13:24:01.179Z,29.80
2022-08-11T13:26:47.566Z,28.80
2022-08-11T13:29:24.169Z,30.00
2022-08-11T13:31:54.481Z,31.10
2022-08-11T13:34:27.232Z,30.50
2022-08-11T13:36:56.957Z,29.10
2022-08-11T13:39:27.830Z,28.50
2022-08-11T13:41:57.495Z,30.90
2022-08-11T13:44:28.448Z,30.30
2022-08-11T13:47:01.642Z,30.00
2022-08-11T13:49:32.837Z,31.10
2022-08-11T13:52:02.273Z,32.30
2022-08-11T13:54:33.472Z,31.90
2022-08-11T13:57:08.250Z,32.60
2022-08-11T13:59:49.969Z,30.50
2022-08-11T14:02:29.032Z,30.20
2022-08-11T14:05:03.375Z,32.80
2022-08-11T14:07:36.742Z,30.50
2022-08-11T14:10:07.777Z,32.60
2022-08-11T14:12:56.148Z,34.00
2022-08-11T14:15:26.616Z,33.90
2022-08-11T14:18:05.005Z,34.00
2022-08-11T14:20:50.753Z,35.80
2022-08-11T14:23:21.087Z,35.10
2022-08-11T14:26:09.908Z,36.90
2022-08-11T14:28:44.062Z,32.70
2022-08-11T14:31:15.649Z,32.90
2022-08-11T14:33:59.915Z,34.70
2022-08-11T14:36:34.087Z,34.40
2022-08-11T14:39:05.613Z,36.40
2022-08-11T14:42:10.633Z,37.10
2022-08-11T14:44:59.009Z,35.00
2022-08-11T14:47:29.204Z,37.10
2022-08-11T14:50:11.322Z,37.30
2022-08-11T14:52:46.915Z,37.10
2022-08-11T14:55:33.273Z,37.30
2022-08-11T14:58:02.950Z,35.10
2022-08-11T15:00:33.336Z,37.90
2022-08-11T15:03:10.497Z,40.40
2022-08-11T15:05:41.759Z,39.00
2022-08-11T15:08:45.902Z,40.50
2022-08-11T15:11:34.490Z,39.70
2022-08-11T15:14:04.987Z,39.90
2022-08-11T15:16:50.962Z,40.30
2022-08-11T15:19:22.071Z,37.90
2022-08-11T15:22:07.839Z,39.00
2022-08-11T15:24:38.355Z,39.90
2022-08-11T15:27:27.929Z,36.80
2022-08-11T15:30:33.573Z,37.30
2022-08-11T15:33:25.923Z,38.80
2022-08-11T15:36:14.624Z,38.30
2022-08-11T15:38:48.514Z,37.60
2022-08-11T15:41:37.660Z,39.70
2022-08-11T15:44:51.396Z,38.00
2022-08-11T15:47:19.116Z,38.30
2022-08-11T15:50:10.672Z,38.10
2022-08-11T15:52:51.055Z,37.60
2022-08-11T15:55:20.815Z,38.70
2022-08-11T15:58:10.428Z,40.00
2022-08-11T16:01:03.766Z,41.40
2022-08-11T16:04:08.024Z,37.90
2022-08-11T16:06:49.364Z,39.20
2022-08-11T16:09:21.723Z,38.60
2022-08-11T16:11:52.446Z,38.40
2022-08-11T16:14:43.055Z,40.20
2022-08-11T16:17:13.443Z,41.60
2022-08-11T16:19:43.984Z,41.60
2022-08-11T16:22:13.954Z,41.70
2022-08-11T16:27:02.158Z,42.00
2022-08-11T16:27:39.853Z,42.50
2022-08-11T16:30:11.369Z,42.00
2022-08-11T16:32:43.095Z,42.00
2022-08-11T16:35:31.806Z,41.90
2022-08-11T16:38:19.977Z,43.20
2022-08-11T16:40:50.353Z,41.40
2022-08-11T16:43:38.057Z,42.20
2022-08-11T16:46:26.531Z,42.70
2022-08-11T16:48:56.014Z,45.30
2022-08-11T16:51:24.758Z,42.30
2022-08-11T16:54:04.367Z,43.80
2022-08-11T16:56:38.211Z,45.20
2022-08-11T16:59:16.187Z,45.40
2022-08-11T17:01:53.422Z,45.80
2022-08-11T17:04:54.717Z,47.60
2022-08-11T17:11:06.591Z,47.20
2022-08-11T17:13:56.612Z,47.40
2022-08-11T17:16:48.819Z,47.70
2022-08-11T17:20:42.586Z,48.20
2022-08-11T17:29:53.640Z,48.90
2022-08-11T17:32:57.103Z,47.90
2022-08-11T17:36:09.666Z,47.60
2022-08-11T17:39:02.075Z,53.90
2022-08-11T17:45:04.597Z,57.60
2022-08-11T17:48:09.175Z,54.10
2022-08-11T17:51:40.673Z,56.20
2022-08-11T17:54:41.751Z,55.10
2022-08-11T18:00:30.804Z,56.60
2022-08-11T18:06:49.315Z,54.70
2022-08-11T18:09:54.230Z,56.80
2022-08-11T18:16:22.299Z,59.10
2022-08-11T18:19:14.722Z,59.90
2022-08-11T18:22:15.690Z,59.10
2022-08-11T18:25:08.677Z,60.30
2022-08-11T18:27:56.958Z,58.90
2022-08-11T18:30:43.681Z,59.40
2022-08-11T18:34:05.936Z,59.40
2022-08-11T18:36:41.309Z,58.10
2022-08-11T18:39:31.314Z,57.60
2022-08-11T18:42:29.157Z,57.70
2022-08-11T18:45:20.303Z,57.60
2022-08-11T18:48:11.471Z,57.80
2022-08-11T18:51:29.746Z,58.20
2022-08-11T18:54:10.462Z,58.90
2022-08-11T18:56:59.112Z,59.50
2022-08-11T18:59:47.470Z,60.70
2022-08-11T19:02:48.607Z,61.30
2022-08-11T19:06:05.946Z,61.70
2022-08-11T19:08:47.854Z,62.40
2022-08-11T19:11:34.224Z,61.40
2022-08-11T19:14:26.190Z,61.60
2022-08-11T19:17:13.174Z,61.80
2022-08-11T19:20:20.185Z,61.60
2022-08-11T19:23:07.830Z,63.70
2022-08-11T19:25:54.660Z,65.30
2022-08-11T19:28:42.066Z,64.90
2022-08-11T19:31:29.699Z,65.40
2022-08-11T19:34:17.012Z,63.10
2022-08-11T19:37:03.109Z,63.00
2022-08-11T19:39:49.551Z,63.30
2022-08-11T19:42:36.511Z,66.50
2022-08-11T19:45:24.480Z,65.20
2022-08-11T19:48:31.219Z,65.50
2022-08-11T19:51:19.254Z,64.00
2022-08-11T19:54:08.123Z,64.00
2022-08-11T19:56:55.167Z,64.20
2022-08-11T19:59:41.642Z,64.50
2022-08-11T20:02:28.906Z,65.10
2022-08-11T20:05:16.045Z,64.50
2022-08-11T20:08:02.606Z,64.00
2022-08-11T20:11:09.654Z,65.60
2022-08-11T20:14:14.232Z,67.10
2022-08-11T20:23:39.723Z,67.30
2022-08-11T20:26:31.762Z,67.80
2022-08-11T20:29:23.528Z,68.00
2022-08-11T20:32:21.943Z,68.40
2022-08-11T20:38:19.815Z,67.80
2022-08-11T20:47:56.546Z,69.20
2022-08-11T20:51:02.163Z,69.90
2022-08-11T20:54:05.400Z,69.40
2022-08-11T20:57:35.591Z,69.30
2022-08-11T21:04:04.054Z,69.50
2022-08-11T21:06:56.527Z,70.10
2022-08-11T21:09:58.365Z,69.60
2022-08-11T21:16:09.170Z,73.00
2022-08-11T21:22:16.756Z,72.30
2022-08-11T21:25:17.108Z,72.00
2022-08-11T21:31:38.913Z,72.70
2022-08-11T21:37:58.652Z,72.30
2022-08-11T21:40:58.579Z,72.20
2022-08-11T21:48:06.475Z,72.20
2022-08-11T21:54:24.029Z,71.90
2022-08-11T21:57:14.947Z,73.10
2022-08-11T22:00:18.234Z,76.90
2022-08-11T22:03:18.523Z,75.20
2022-08-11T22:09:22.697Z,76.50
2022-08-11T22:12:30.024Z,80.00
2022-08-11T22:19:11.048Z,77.80
2022-08-11T22:22:18.923Z,78.30
2022-08-11T22:25:26.891Z,79.10
2022-08-11T22:28:50.462Z,78.70
2022-08-11T22:34:57.803Z,80.50
2022-08-11T22:38:23.418Z,79.70
2022-08-11T22:41:38.901Z,80.20
2022-08-11T22:44:28.270Z,79.50
2022-08-11T22:47:38.379Z,80.20
2022-08-11T22:50:48.447Z,81.80
2022-08-11T22:53:55.220Z,82.60
2022-08-11T22:56:54.920Z,83.90
2022-08-11T23:06:20.197Z,85.50
2022-08-11T23:09:12.198Z,88.30
2022-08-11T23:12:32.803Z,89.80
2022-08-11T23:15:31.196Z,90.10
2022-08-11T23:18:21.143Z,90.10
2022-08-11T23:24:21.488Z,92.00
2022-08-11T23:27:40.999Z,93.60
2022-08-11T23:34:10.341Z,94.70
2022-08-11T23:40:45.249Z,95.40
2022-08-11T23:43:40.692Z,97.00
2022-08-11T23:46:34.834Z,98.20
2022-08-11T23:49:29.531Z,97.60
2022-08-11T23:52:36.726Z,98.60
2022-08-11T23:55:48.316Z,99.20
2022-08-11T23:58:56.474Z,99.90
